Hlavní strana
METAR-TAF:

METAR-TAF

Letiště :

Bloomington / Normal, Illinois, Spojené státy americké

zeměpisná šířka: 40-29N, zeměpisná délka: 088-55W, výška: 267 m

Aktuální stav počasí

Zpráva byla vytvořena před 26 minutami, v 10:56 UTC
Západoseverozápadní vítr 4 kt
Teplota -4°C
Vlhkost vzduchu 100%
Tlak 1027 hPa
Viditelnost: 16.1 km
Jasno

METAR: KBMI 251056Z AUTO 30004KT 10SM CLR M04/M04 A3033 RMK AO2 SLP277 T10391044

Čas: 05:22 (11:22 UTC)

Předpověď počasí

Zpráva byla vytvořena před 5 hodinami a 39 minutami, v 05:43 UTC
Předpověď platná od 25 v 06 UTC do 26 v 06 UTC
Severozápadní vítr 7 kt
Viditelnost: 10 km
Polojasno ve výšce 20000 ft

TAF: KBMI 250543Z 2506/2606 31007KT P6SM SCT200

Stav a předpovědi počasí z více než 4 000 letišť (zprávy METAR a TAF).

Červené a žluté tečky na mapě představují dostupné meteorologické stanice.

Když kurzor umístíte na tečku, zobrazí se název stanice.

Pak kliknutím zobrazíte stav a předpověď počasí.

Chcete-li změnit mapu, kliknutím na zelené tlačítko se znaménkem +mapu přiblížíte, kliknutím na zelené tlačítko se znaménkem – mapu oddálíte a kliknutím na zelené šipky přejdete na sousední mapy.


METAR-TAF: